Time;durP1;ratioP1;P1;durP2;ratioP2;P2;SDS_P1;SDS_P2;PMS_P1;PMS_P2;Temp;Humidity;BMP_temperature;BMP_pressure;BME280_temperature;BME280_humidity;BME280_pressure;Samples;Min_cycle;Max_cycle;Signal;HPM_P1;HPM_P2
2021/11/14 06:02:22;;;;;;;49.50;29.80;;;154.20;2252.80;;;;;;6330368;22;20108;-79
2021/11/14 06:20:15;;;;;;;48.05;27.60;;;154.20;2252.80;;;;;;6316871;22;20402;-79
2021/11/14 06:22:41;;;;;;;41.58;26.23;;;154.50;2252.80;;;;;;6305554;22;20010;-79
2021/11/14 06:25:09;;;;;;;45.78;27.83;;;154.50;2252.80;;;;;;6328756;22;20425;-73
2021/11/14 06:27:36;;;;;;;44.08;28.92;;;179.20;2252.80;;;;;;6363458;22;20014;-74
2021/11/14 06:30:05;;;;;;;45.72;28.85;;;179.20;2252.80;;;;;;6364992;22;19999;-76
2021/11/14 06:40:46;;;;;;;39.15;24.30;;;154.40;2252.80;;;;;;6299763;22;20015;-79
2021/11/14 06:43:12;;;;;;;40.58;27.13;;;179.40;2252.80;;;;;;6297162;22;19990;-78
2021/11/14 06:52:25;;;;;;;38.42;25.58;;;179.70;2252.80;;;;;;6131457;23;20016;-77
2021/11/14 06:54:51;;;;;;;36.72;25.65;;;179.80;2252.80;;;;;;6149512;23;20018;-74
2021/11/14 06:57:18;;;;;;;33.47;24.50;;;179.90;2252.80;;;;;;6181352;23;19990;-76
2021/11/14 06:59:45;;;;;;;40.15;26.70;;;205.00;2252.80;;;;;;6156443;23;20065;-74
2021/11/14 07:09:57;;;;;;;44.25;30.50;;;256.60;2252.80;;;;;;6365892;22;20009;-76
2021/11/14 07:12:24;;;;;;;39.45;27.40;;;231.10;2252.80;;;;;;6398042;22;19982;-74
2021/11/14 07:18:11;;;;;;;39.03;25.60;;;;;;;;;;6396787;22;20028;-78
2021/11/14 07:20:47;;;;;;;35.85;25.88;;;;;;;;;;6393685;22;19991;-77
2021/11/14 07:23:17;;;;;;;30.75;22.90;;;;;;;;;;6397572;22;20013;-77
2021/11/14 07:25:44;;;;;;;30.20;21.30;;;;;;;;;;6396644;22;19987;-77
2021/11/14 07:28:11;;;;;;;31.80;21.88;;;;;;;;;;6396931;22;20039;-77
2021/11/14 07:30:42;;;;;;;32.67;21.20;;;;;;;;;;6393243;22;20007;-77
2021/11/14 07:33:15;;;;;;;28.17;20.73;;;;;;;;;;6393294;22;20009;-76
2021/11/14 07:35:54;;;;;;;31.05;21.98;;;;;;;;;;6392906;22;20007;-79
2021/11/14 07:38:23;;;;;;;28.55;21.52;;;;;;;;;;6395427;22;20008;-79
2021/11/14 07:40:49;;;;;;;33.03;23.38;;;;;;;;;;6390169;22;20006;-76
2021/11/14 07:43:15;;;;;;;30.73;22.10;;;;;;;;;;6393295;22;20014;-78
2021/11/14 07:45:44;;;;;;;28.88;20.98;;;;;;;;;;6385795;22;20009;-76
2021/11/14 07:48:11;;;;;;;30.00;21.73;;;;;;;;;;6393093;22;19990;-76
2021/11/14 07:50:41;;;;;;;31.33;21.77;;;;;;;;;;6394124;22;19979;-77
2021/11/14 07:53:09;;;;;;;28.58;21.35;;;;;;;;;;6394072;22;19990;-77
2021/11/14 07:55:35;;;;;;;30.48;20.58;;;;;;;;;;6371580;22;20022;-78
2021/11/14 07:58:05;;;;;;;32.30;21.80;;;;;;;;;;6332010;22;20042;-78
2021/11/14 08:00:32;;;;;;;28.75;21.10;;;;;;;;;;6332645;22;20002;-77
2021/11/14 08:02:58;;;;;;;30.38;21.65;;;;;;;;;;6357822;22;20005;-78
2021/11/14 08:05:24;;;;;;;28.45;20.75;;;;;;;;;;6329756;22;20501;-77
2021/11/14 08:10:56;;;;;;;25.40;19.55;;;;;;;;;;6362177;22;20009;-78
2021/11/14 08:13:33;;;;;;;28.40;21.17;;;;;;;;;;6361173;22;20006;-78
2021/11/14 08:15:59;;;;;;;28.08;20.60;;;;;;;;;;6329316;22;20026;-76
2021/11/14 08:18:26;;;;;;;27.88;20.25;;;;;;;;;;6338425;22;20002;-75
2021/11/14 08:20:53;;;;;;;29.40;20.65;;;;;;;;;;6338742;22;19987;-74
2021/11/14 08:23:57;;;;;;;26.55;20.50;;;;;;;;;;6339078;22;20003;-77
2021/11/14 08:26:43;;;;;;;32.80;23.98;;;;;;;;;;6365294;22;20022;-75
2021/11/14 08:29:09;;;;;;;31.67;21.60;;;;;;;;;;6340115;22;20003;-76
2021/11/14 08:31:36;;;;;;;26.63;19.40;;;;;;;;;;6365243;22;19994;-74
2021/11/14 08:34:02;;;;;;;28.23;20.65;;;;;;;;;;6365957;22;19987;-76
2021/11/14 08:39:27;;;;;;;35.42;24.00;;;;;;;;;;6364488;22;20013;-76
2021/11/14 08:42:01;;;;;;;29.08;20.90;;;;;;;;;;6360279;22;20006;-75
2021/11/14 08:44:36;;;;;;;31.48;21.35;;;;;;;;;;6356460;22;19983;-77
2021/11/14 08:47:13;;;;;;;35.58;22.63;;;;;;;;;;6358297;22;19991;-79
2021/11/14 08:53:32;;;;;;;26.13;18.00;;;;;;;;;;6299345;22;20091;-80
2021/11/14 08:56:20;;;;;;;24.85;18.02;;;;;;;;;;6180522;23;20053;-80
2021/11/14 09:06:36;;;;;;;23.38;17.27;;;;;;;;;;6366760;22;20007;-78
2021/11/14 09:09:03;;;;;;;30.40;18.23;;;;;;;;;;6340637;22;19994;-78
2021/11/14 09:11:31;;;;;;;26.95;18.85;;;;;;;;;;6364775;22;20002;-77
2021/11/14 09:14:19;;;;;;;25.60;18.02;;;;;;;;;;6337872;22;20067;-79
2021/11/14 09:16:46;;;;;;;25.77;19.05;;;;;;;;;;6360085;22;20018;-79
2021/11/14 09:19:12;;;;;;;24.15;17.65;;;;;;;;;;6334154;22;19995;-75
2021/11/14 09:21:41;;;;;;;24.77;17.65;;;;;;;;;;6324956;22;20098;-77
2021/11/14 09:24:08;;;;;;;24.55;17.60;;;;;;;;;;6323056;22;20042;-77
2021/11/14 09:26:34;;;;;;;24.75;17.33;;;;;;;;;;6327960;22;20006;-79
2021/11/14 09:29:30;;;;;;;27.15;18.60;;;;;;;;;;6324444;22;19999;-76
2021/11/14 09:31:56;;;;;;;25.08;16.17;;;;;;;;;;6326084;22;20011;-76
2021/11/14 09:34:22;;;;;;;23.70;16.33;;;;;;;;;;6344635;22;20006;-76
2021/11/14 09:36:48;;;;;;;21.63;16.30;;;;;;;;;;6341382;22;20440;-75
2021/11/14 09:39:15;;;;;;;23.77;16.95;;;;;;;;;;6342317;22;20306;-76
2021/11/14 09:41:43;;;;;;;22.73;17.30;;;;;;;;;;6341795;22;20417;-75
2021/11/14 09:44:15;;;;;;;23.83;17.13;;;;;;;;;;6348275;22;19995;-80
2021/11/14 09:47:03;;;;;;;23.42;17.90;;;;;;;;;;6250516;23;20451;-78
2021/11/14 09:49:33;;;;;;;21.70;16.80;;;;;;;;;;6225727;23;20455;-78
2021/11/14 09:52:07;;;;;;;26.55;18.13;;;;;;;;;;6226890;23;20001;-80
2021/11/14 09:54:41;;;;;;;23.08;16.73;;;;;;;;;;6187000;23;20013;-79
2021/11/14 09:57:27;;;;;;;22.13;16.90;;;;;;;;;;6231094;23;20031;-77
2021/11/14 10:00:04;;;;;;;27.40;17.88;;;;;;;;;;6236713;22;20032;-77
2021/11/14 10:02:52;;;;;;;25.92;18.38;;;;;;;;;;6235864;23;20009;-78
2021/11/14 10:14:00;;;;;;;23.92;17.92;;;;;;;;;;6365868;22;20042;-75
2021/11/14 10:19:09;;;;;;;27.52;18.63;;;;;;;;;;6370535;22;20030;-75
2021/11/14 10:21:35;;;;;;;29.83;18.40;;;;;;;;;;6341808;22;19983;-76
2021/11/14 10:24:04;;;;;;;23.67;17.23;;;;;;;;;;6368067;22;20003;-76
2021/11/14 10:34:18;;;;;;;20.73;16.25;;;;;;;;;;6342412;22;20007;-75
2021/11/14 10:36:44;;;;;;;25.65;15.98;;;;;;;;;;6337345;22;20043;-75
2021/11/14 10:39:11;;;;;;;22.23;16.45;;;;;;;;;;6337322;22;20003;-75
2021/11/14 10:44:48;;;;;;;22.87;15.20;;;;;;;;;;6336971;22;20028;-75
2021/11/14 10:47:18;;;;;;;24.92;16.52;;;;;;;;;;6333726;22;19983;-74
2021/11/14 11:13:13;;;;;;;21.30;15.63;;;;;;;;;;6359034;22;20003;-78
2021/11/14 11:15:48;;;;;;;23.20;15.85;;;;;;;;;;6341447;22;20026;-76
2021/11/14 11:36:25;;;;;;;20.75;16.13;;;;;;;;;;6366468;22;20030;-76
2021/11/14 11:41:49;;;;;;;25.60;17.50;;;;;;;;;;6371960;22;20411;-80
2021/11/14 11:44:40;;;;;;;21.60;16.50;;;;;;;;;;6310668;22;19999;-76
2021/11/14 11:47:09;;;;;;;24.30;17.27;;;;;;;;;;6296975;22;19988;-76
2021/11/14 11:49:37;;;;;;;25.20;17.35;;;;;;;;;;6288653;22;20010;-76
2021/11/14 11:54:42;;;;;;;27.05;17.88;;;;;;;;;;6346790;22;20026;-78
2021/11/14 11:57:12;;;;;;;40.92;24.98;;;;;;;;;;6357387;22;20003;-79
2021/11/14 12:15:19;;;;;;;27.90;19.20;;;;;;;;;;6353107;22;20031;-75
2021/11/14 12:17:51;;;;;;;28.27;18.50;;;;;;;;;;6360773;22;19999;-73
2021/11/14 12:20:19;;;;;;;25.77;18.08;;;;;;;;;;6329279;22;20052;-77
2021/11/14 12:23:16;;;;;;;26.95;18.90;;;;;;;;;;6327327;22;20027;-78
2021/11/14 12:25:48;;;;;;;33.15;19.67;;;;;;;;;;6349873;22;20007;-76
2021/11/14 12:33:30;;;;;;;24.48;17.17;;;;;;;;;;6363804;22;20019;-76
2021/11/14 12:43:50;;;;;;;25.45;17.25;;;;;;;;;;6365492;22;20024;-74
2021/11/14 12:48:52;;;;;;;30.83;19.48;;;;;;;;;;6362820;22;20048;-76
2021/11/14 12:51:25;;;;;;;28.95;17.85;;;;;;;;;;6369513;22;20010;-75
2021/11/14 12:54:13;;;;;;;32.33;20.55;;;;;;;;;;6369297;22;20028;-75
2021/11/14 12:56:41;;;;;;;28.90;17.02;;;;;;;;;;6369434;22;20066;-74
2021/11/14 12:59:27;;;;;;;37.20;21.92;;;;;;;;;;6336213;22;20002;-75
2021/11/14 13:01:58;;;;;;;38.03;21.83;;;;;;;;;;6342399;22;20013;-76
2021/11/14 13:04:29;;;;;;;26.25;18.08;;;;;;;;;;6369437;22;19990;-75
2021/11/14 13:09:38;;;;;;;28.35;17.05;;;;;;;;;;6360021;22;20030;-78
2021/11/14 13:12:09;;;;;;;30.63;19.00;;;;;;;;;;6368712;22;19993;-75
2021/11/14 13:14:36;;;;;;;39.03;22.08;;;;;;;;;;6342830;22;19986;-75
2021/11/14 13:19:38;;;;;;;28.20;18.45;;;;;;;;;;6364362;22;20030;-75
2021/11/14 13:22:05;;;;;;;24.90;17.33;;;;;;;;;;6342258;22;19994;-75
2021/11/14 13:53:09;;;;;;;22.67;16.23;;;;;;;;;;6367779;22;20018;-75
2021/11/14 13:55:49;;;;;;;24.77;16.63;;;;;;;;;;6339815;22;20023;-75
2021/11/14 13:58:16;;;;;;;23.60;15.15;;;;;;;;;;6342057;22;20006;-75
2021/11/14 14:00:44;;;;;;;22.83;15.60;;;;;;;;;;6342064;22;20021;-74
2021/11/14 14:03:21;;;;;;;23.20;15.85;;;;;;;;;;6368503;22;19999;-74
2021/11/14 14:24:03;;;;;;;24.13;15.68;;;;;;;;;;6357664;22;20018;-78
2021/11/14 14:26:31;;;;;;;30.20;18.80;;;;;;;;;;6358664;22;20003;-78
2021/11/14 14:28:58;;;;;;;31.98;22.20;;;;;;;;;;6333427;22;19987;-76
2021/11/14 14:31:26;;;;;;;35.15;21.83;;;;;;;;;;6368802;22;19983;-73
2021/11/14 14:54:42;;;;;;;35.17;23.88;;;;;;;;;;6357475;22;20056;-74
2021/11/14 15:02:19;;;;;;;30.05;21.17;;;;;;;;;;6367326;22;20007;-76
2021/11/14 15:12:36;;;;;;;40.00;27.17;;;;;;;;;;6360580;22;20003;-75
2021/11/14 15:22:56;;;;;;;35.30;21.00;;;;;;;;;;6367515;22;20003;-75
2021/11/14 15:25:26;;;;;;;35.22;22.13;;;;;;;;;;6368340;22;20017;-75
2021/11/14 15:27:57;;;;;;;42.38;27.95;;;;;;;;;;6341536;22;19987;-75
2021/11/14 15:30:25;;;;;;;45.38;29.63;;;;;;;;;;6341001;22;19994;-75
2021/11/14 15:32:51;;;;;;;35.33;22.75;;;;;;;;;;6325357;22;20790;-76
2021/11/14 15:35:18;;;;;;;51.38;31.85;;;;;;;;;;6368337;22;20039;-75
2021/11/14 15:37:44;;;;;;;42.67;26.55;;;;;;;;;;6341630;22;19987;-74
2021/11/14 15:40:14;;;;;;;44.80;28.33;;;;;;;;;;6341109;22;19999;-75
2021/11/14 15:42:41;;;;;;;50.45;31.67;;;;;;;;;;6334663;22;20011;-76
2021/11/14 15:45:08;;;;;;;43.90;27.10;;;;;;;;;;6364727;22;19995;-76
2021/11/14 15:47:35;;;;;;;40.60;28.02;;;;;;;;;;6338254;22;19999;-76
2021/11/14 15:50:22;;;;;;;39.95;23.38;;;;;;;;;;6364161;22;19999;-78
2021/11/14 15:52:49;;;;;;;40.92;25.13;;;;;;;;;;6338955;22;20003;-76
2021/11/14 15:55:23;;;;;;;37.53;24.90;;;;;;;;;;6367308;22;20011;-77
2021/11/14 15:57:50;;;;;;;46.63;25.42;;;;;;;;;;6338960;22;19995;-77
2021/11/14 16:00:41;;;;;;;41.13;26.73;;;;;;;;;;6340163;22;20015;-77
2021/11/14 16:03:34;;;;;;;36.08;23.08;;;;;;;;;;6272251;23;20027;-77
2021/11/14 16:08:36;;;;;;;53.47;34.73;;;;;;;;;;6366287;22;20027;-77
2021/11/14 16:11:41;;;;;;;36.95;23.55;;;;;;;;;;6361714;22;19991;-77
2021/11/14 16:14:38;;;;;;;32.63;22.13;;;;;;;;;;6263867;23;20040;-78
2021/11/14 16:17:26;;;;;;;62.33;40.30;;;;;;;;;;6095941;23;20079;-78
2021/11/14 16:20:20;;;;;;;48.10;30.27;;;;;;;;;;6067040;23;20018;-77
2021/11/14 16:23:12;;;;;;;46.22;27.58;;;;;;;;;;6066057;23;20046;-77
2021/11/14 16:29:06;;;;;;;57.30;30.55;;;;;;;;;;6365345;22;20033;-79
2021/11/14 16:31:34;;;;;;;105.93;56.75;;;;;;;;;;6359251;22;19998;-78
2021/11/14 16:34:03;;;;;;;108.53;62.15;;;;;;;;;;6367929;22;19995;-79
2021/11/14 16:36:29;;;;;;;65.78;42.25;;;;;;;;;;6332705;22;20351;-78
2021/11/14 16:38:57;;;;;;;58.08;37.83;;;;;;;;;;6316945;22;20068;-77
2021/11/14 16:41:25;;;;;;;64.35;38.40;;;;;;;;;;6343258;22;19998;-76
2021/11/14 16:43:51;;;;;;;57.45;37.40;;;;;;;;;;6317108;22;20388;-78
2021/11/14 17:14:51;;;;;;;34.80;21.88;;;;;;;;;;6348229;22;20003;-78
2021/11/14 17:17:17;;;;;;;57.70;33.53;;;;;;;;;;6328384;22;20034;-77
2021/11/14 17:19:46;;;;;;;57.97;34.30;;;;;;;;;;6333292;22;20014;-76
2021/11/14 17:22:14;;;;;;;49.08;31.83;;;;;;;;;;6350841;22;20003;-76
2021/11/14 17:25:08;;;;;;;49.88;32.47;;;;;;;;;;6327614;22;20009;-79
2021/11/14 17:27:36;;;;;;;53.25;31.67;;;230.90;2252.80;;;;;;6322583;22;20002;-77
2021/11/14 17:30:26;;;;;;;47.70;29.95;;;230.70;2252.80;;;;;;6355081;22;19985;-77
2021/11/14 17:32:58;;;;;;;63.38;39.65;;;230.50;2252.80;;;;;;6259605;22;20014;-77
2021/11/14 17:35:23;;;;;;;61.50;37.47;;;230.50;2252.80;;;;;;6283245;22;20079;-77
2021/11/14 17:37:49;;;;;;;60.33;36.10;;;230.50;2252.80;;;;;;6289422;22;19995;-78
2021/11/14 17:40:15;;;;;;;56.22;35.83;;;230.40;2252.80;;;;;;6264439;22;20000;-78
2021/11/14 17:42:56;;;;;;;58.33;35.13;;;230.40;2252.80;;;;;;6267842;22;20004;-77
2021/11/14 17:45:24;;;;;;;56.83;36.83;;;205.70;2252.80;;;;;;6287325;22;20011;-77
2021/11/14 17:48:15;;;;;;;58.05;37.67;;;205.60;2252.80;;;;;;6285215;22;20007;-79
2021/11/14 19:24:04;;;;;;;57.17;32.22;;;205.60;2252.80;;;;;;6354578;22;20034;-78
2021/11/14 19:26:33;;;;;;;46.70;29.83;;;204.80;2252.80;;;;;;6353757;22;20007;-78
2021/11/14 19:29:00;;;;;;;45.25;29.05;;;205.30;2252.80;;;;;;6330192;22;20003;-79
2021/11/14 19:31:32;;;;;;;40.45;25.30;;;205.50;2252.80;;;;;;6356988;22;19999;-79
2021/11/14 19:33:59;;;;;;;40.83;24.45;;;205.50;2252.80;;;;;;6329045;22;20002;-79
2021/11/14 19:36:40;;;;;;;36.40;24.45;;;205.50;2252.80;;;;;;6275403;22;20066;-80
2021/11/14 19:39:17;;;;;;;32.92;22.10;;;205.50;2252.80;;;;;;6358884;22;20040;-79
2021/11/14 19:41:44;;;;;;;31.27;20.85;;;205.50;2252.80;;;;;;6353149;22;20009;-77
2021/11/14 19:44:12;;;;;;;34.95;24.10;;;205.50;2252.80;;;;;;6326392;22;20047;-79
2021/11/14 19:46:39;;;;;;;37.00;27.05;;;205.50;2252.80;;;;;;6327898;22;20022;-78
2021/11/14 19:49:18;;;;;;;36.10;24.48;;;205.40;2252.80;;;;;;6345075;22;20005;-78
2021/11/14 19:51:50;;;;;;;32.17;24.08;;;205.40;2252.80;;;;;;6324076;22;20033;-77
2021/11/14 19:54:18;;;;;;;30.20;21.45;;;205.40;2252.80;;;;;;6348814;22;20006;-76
2021/11/14 19:56:44;;;;;;;32.55;22.50;;;205.40;2252.80;;;;;;6348879;22;20497;-77
2021/11/14 19:59:26;;;;;;;32.17;23.23;;;205.40;2252.80;;;;;;6361209;22;19995;-75
2021/11/14 20:01:54;;;;;;;35.45;24.63;;;205.30;2252.80;;;;;;6363145;22;19995;-77
2021/11/14 20:04:25;;;;;;;35.25;23.48;;;205.30;2252.80;;;;;;6358553;22;20003;-78
2021/11/14 20:06:52;;;;;;;29.50;21.83;;;230.80;2252.80;;;;;;6302339;22;20003;-78
2021/11/14 20:09:18;;;;;;;33.42;22.58;;;205.30;2252.80;;;;;;6348904;22;20435;-77
2021/11/14 20:11:46;;;;;;;31.55;22.02;;;205.30;2252.80;;;;;;6323161;22;20432;-77
2021/11/14 20:14:20;;;;;;;29.27;20.65;;;205.20;2252.80;;;;;;6331843;22;20003;-75
